createdAt,value
2023-02-04T00:00:29.210Z,9.30
2023-02-04T00:02:58.700Z,9.20
2023-02-04T00:05:25.384Z,9.10
2023-02-04T00:07:54.585Z,9.20
2023-02-04T00:10:23.447Z,9.10
2023-02-04T00:12:50.105Z,9.20
2023-02-04T00:15:16.803Z,9.20
2023-02-04T00:17:45.663Z,9.10
2023-02-04T00:20:12.810Z,9.00
2023-02-04T00:22:41.810Z,9.10
2023-02-04T00:25:08.703Z,9.10
2023-02-04T00:27:35.360Z,9.10
2023-02-04T00:30:02.362Z,9.10
2023-02-04T00:32:29.087Z,9.10
2023-02-04T00:34:55.868Z,9.20
2023-02-04T00:37:24.689Z,9.20
2023-02-04T00:39:52.448Z,9.10
2023-02-04T00:42:21.579Z,9.10
2023-02-04T00:44:48.239Z,9.10
2023-02-04T00:47:15.103Z,9.10
2023-02-04T00:49:43.964Z,9.10
2023-02-04T00:52:10.999Z,9.00
2023-02-04T00:54:37.668Z,8.90
2023-02-04T00:57:04.329Z,9.00
2023-02-04T00:59:31.029Z,9.00
2023-02-04T01:02:00.414Z,9.00
2023-02-04T01:04:28.313Z,9.10
2023-02-04T01:06:54.976Z,9.00
2023-02-04T01:09:21.868Z,9.10
2023-02-04T01:11:48.554Z,9.10
2023-02-04T01:14:15.285Z,9.00
2023-02-04T01:16:45.287Z,9.00
2023-02-04T01:19:12.624Z,9.00
2023-02-04T01:21:40.992Z,9.00
2023-02-04T01:24:07.906Z,9.00
2023-02-04T01:26:34.568Z,9.10
2023-02-04T01:29:03.565Z,9.10
2023-02-04T01:31:31.479Z,9.10
2023-02-04T01:33:58.246Z,9.10
2023-02-04T01:36:24.898Z,9.10
2023-02-04T01:38:53.925Z,9.10
2023-02-04T01:41:22.928Z,9.00
2023-02-04T01:43:52.794Z,9.00
2023-02-04T01:46:19.614Z,9.00
2023-02-04T01:48:46.424Z,9.00
2023-02-04T01:51:20.742Z,9.00
2023-02-04T01:53:47.406Z,9.00
2023-02-04T01:56:18.090Z,9.00
2023-02-04T01:58:46.038Z,9.00
2023-02-04T02:01:33.845Z,9.00
2023-02-04T02:04:01.048Z,9.00
2023-02-04T02:06:28.649Z,9.00
2023-02-04T02:08:55.473Z,9.00
2023-02-04T02:11:22.141Z,9.00
2023-02-04T02:13:53.597Z,9.10
2023-02-04T02:16:20.481Z,9.00
2023-02-04T02:18:47.322Z,9.00
2023-02-04T02:21:16.759Z,9.00
2023-02-04T02:24:01.103Z,9.00
2023-02-04T02:26:28.270Z,9.00
2023-02-04T02:28:55.359Z,9.00
2023-02-04T02:31:25.173Z,9.00
2023-02-04T02:33:56.849Z,8.90
2023-02-04T02:36:23.653Z,8.90
2023-02-04T02:38:55.930Z,8.90
2023-02-04T02:41:24.752Z,8.90
2023-02-04T02:43:53.748Z,8.90
2023-02-04T02:46:20.581Z,8.90
2023-02-04T02:48:47.326Z,8.90
2023-02-04T02:51:16.171Z,8.90
2023-02-04T02:53:45.226Z,8.80
2023-02-04T02:56:11.888Z,8.80
2023-02-04T02:58:38.836Z,8.70
2023-02-04T03:01:08.401Z,8.70
2023-02-04T03:03:42.383Z,8.70
2023-02-04T03:06:22.082Z,8.70
2023-02-04T03:08:52.659Z,8.70
2023-02-04T03:11:19.307Z,8.60
2023-02-04T03:13:46.034Z,8.50
2023-02-04T03:16:13.263Z,8.50
2023-02-04T03:18:42.563Z,8.50
2023-02-04T03:21:09.268Z,8.60
2023-02-04T03:23:36.740Z,8.60
2023-02-04T03:26:04.784Z,8.60
2023-02-04T03:28:39.049Z,8.60
2023-02-04T03:31:07.973Z,8.50
2023-02-04T03:33:35.906Z,8.50
2023-02-04T03:36:05.097Z,8.50
2023-02-04T03:38:33.837Z,8.50
2023-02-04T03:41:00.856Z,8.50
2023-02-04T03:43:27.876Z,8.40
2023-02-04T03:45:54.619Z,8.50
2023-02-04T03:48:23.877Z,8.50
2023-02-04T03:50:50.564Z,8.50
2023-02-04T03:53:17.245Z,8.50
2023-02-04T03:55:43.910Z,8.50
2023-02-04T03:58:13.030Z,8.50
2023-02-04T04:00:41.861Z,8.50
2023-02-04T04:03:10.845Z,8.50
2023-02-04T04:05:37.556Z,8.50
2023-02-04T04:08:04.391Z,8.50
2023-02-04T04:10:33.792Z,8.50
2023-02-04T04:13:05.268Z,8.50
2023-02-04T04:15:34.409Z,8.40
2023-02-04T04:18:01.883Z,8.40
2023-02-04T04:20:29.059Z,8.40
2023-02-04T04:22:58.322Z,8.40
2023-02-04T04:25:25.175Z,8.40
2023-02-04T04:27:52.301Z,8.40
2023-02-04T04:30:19.217Z,8.30
2023-02-04T04:32:45.909Z,8.40
2023-02-04T04:35:14.810Z,8.40
2023-02-04T04:37:41.458Z,8.40
2023-02-04T04:40:11.462Z,8.30
2023-02-04T04:42:38.014Z,8.30
2023-02-04T04:45:09.402Z,8.30
2023-02-04T04:47:36.124Z,8.30
2023-02-04T04:50:03.501Z,8.30
2023-02-04T04:52:30.166Z,8.30
2023-02-04T04:54:56.836Z,8.30
2023-02-04T04:57:23.517Z,8.20
2023-02-04T04:59:50.221Z,8.20
2023-02-04T05:02:16.876Z,8.20
2023-02-04T05:04:44.541Z,8.20
2023-02-04T05:07:15.892Z,8.20
2023-02-04T05:09:42.681Z,8.20
2023-02-04T05:12:09.392Z,8.20
2023-02-04T05:14:38.323Z,8.10
2023-02-04T05:17:04.983Z,8.20
2023-02-04T05:19:31.620Z,8.20
2023-02-04T05:22:01.557Z,8.20
2023-02-04T05:24:30.618Z,8.20
2023-02-04T05:27:02.011Z,8.20
2023-02-04T05:29:33.369Z,8.20
2023-02-04T05:32:00.041Z,8.30
2023-02-04T05:34:26.763Z,8.20
2023-02-04T05:36:53.414Z,8.20
2023-02-04T05:39:22.575Z,8.20
2023-02-04T05:41:51.719Z,8.20
2023-02-04T05:44:18.384Z,8.20
2023-02-04T05:46:47.523Z,8.20
2023-02-04T05:49:14.210Z,8.20
2023-02-04T05:51:43.017Z,8.20
2023-02-04T05:54:09.673Z,8.20
2023-02-04T05:56:36.385Z,8.20
2023-02-04T05:59:03.028Z,8.20
2023-02-04T06:01:29.654Z,8.20
2023-02-04T06:03:58.550Z,8.20
2023-02-04T06:06:25.208Z,8.10
2023-02-04T06:08:56.494Z,8.20
2023-02-04T06:11:23.200Z,8.10
2023-02-04T06:13:49.856Z,8.20
2023-02-04T06:16:16.554Z,8.20
2023-02-04T06:18:45.595Z,8.30
2023-02-04T06:21:12.252Z,8.20
2023-02-04T06:23:38.930Z,8.20
2023-02-04T06:26:06.263Z,8.20
2023-02-04T06:28:35.096Z,8.20
2023-02-04T06:31:01.951Z,8.20
2023-02-04T06:33:31.137Z,8.20
2023-02-04T06:35:57.809Z,8.10
2023-02-04T06:38:24.545Z,8.10
2023-02-04T06:40:53.704Z,8.10
2023-02-04T06:43:21.715Z,8.20
2023-02-04T06:45:48.493Z,8.20
2023-02-04T06:48:15.147Z,8.10
2023-02-04T06:50:41.818Z,8.10
2023-02-04T06:53:08.607Z,8.10
2023-02-04T06:55:35.262Z,8.10
2023-02-04T06:58:02.559Z,8.20
2023-02-04T07:00:31.551Z,8.10
2023-02-04T07:02:58.999Z,8.10
2023-02-04T07:05:26.051Z,8.10
2023-02-04T07:07:52.774Z,8.10
2023-02-04T07:10:20.991Z,8.00
2023-02-04T07:12:50.103Z,8.10
2023-02-04T07:15:17.214Z,8.10
2023-02-04T07:17:46.238Z,8.10
2023-02-04T07:20:13.087Z,8.10
2023-02-04T07:22:39.752Z,8.10
2023-02-04T07:25:06.951Z,8.10
2023-02-04T07:27:33.600Z,8.20
2023-02-04T07:30:00.260Z,8.20
2023-02-04T07:32:27.852Z,8.20
2023-02-04T07:34:54.536Z,8.20
2023-02-04T07:37:21.270Z,8.20
2023-02-04T07:39:50.368Z,8.20
2023-02-04T07:42:17.245Z,8.20
2023-02-04T07:44:43.943Z,8.30
2023-02-04T07:47:12.915Z,8.30
2023-02-04T07:49:39.659Z,8.30
2023-02-04T07:52:06.335Z,8.30
2023-02-04T07:54:32.978Z,8.30
2023-02-04T07:57:04.327Z,8.40
2023-02-04T07:59:30.980Z,8.30
2023-02-04T08:02:01.848Z,8.40
2023-02-04T08:04:28.592Z,8.40
2023-02-04T08:06:55.254Z,8.30
2023-02-04T08:09:27.049Z,8.40
2023-02-04T08:11:53.771Z,8.40
2023-02-04T08:14:20.499Z,8.50
2023-02-04T08:16:49.369Z,8.50
2023-02-04T08:19:18.996Z,8.60
2023-02-04T08:21:48.300Z,8.60
2023-02-04T08:24:15.853Z,8.60
2023-02-04T08:26:43.361Z,8.60
2023-02-04T08:29:10.549Z,8.60
2023-02-04T08:31:39.757Z,8.60
2023-02-04T08:34:06.867Z,8.60
2023-02-04T08:36:33.669Z,8.50
2023-02-04T08:39:00.378Z,8.50
2023-02-04T08:41:27.085Z,8.50
2023-02-04T08:43:55.941Z,8.50
2023-02-04T08:46:22.722Z,8.60
2023-02-04T08:48:51.879Z,8.60
2023-02-04T08:51:19.025Z,8.60
2023-02-04T08:53:45.742Z,8.60
2023-02-04T08:56:16.577Z,8.70
2023-02-04T08:58:44.324Z,8.70
2023-02-04T09:01:14.697Z,8.80
2023-02-04T09:03:41.490Z,8.80
2023-02-04T09:06:08.810Z,8.90
2023-02-04T09:08:37.699Z,8.90
2023-02-04T09:11:04.964Z,8.90
2023-02-04T09:13:32.817Z,9.00
2023-02-04T09:15:59.516Z,9.00
2023-02-04T09:18:26.332Z,9.00
2023-02-04T09:20:53.112Z,9.20
2023-02-04T09:23:23.033Z,9.10
2023-02-04T09:25:52.195Z,9.10
2023-02-04T09:28:21.189Z,9.20
2023-02-04T09:30:47.961Z,9.20
2023-02-04T09:33:16.801Z,9.30
2023-02-04T09:35:46.061Z,9.20
2023-02-04T09:38:12.749Z,9.20
2023-02-04T09:40:46.776Z,9.10
2023-02-04T09:43:20.106Z,9.10
2023-02-04T09:45:49.439Z,9.20
2023-02-04T09:48:20.925Z,9.20
2023-02-04T09:50:48.404Z,9.20
2023-02-04T09:53:21.339Z,9.40
2023-02-04T09:55:52.342Z,9.40
2023-02-04T09:58:21.517Z,9.50
2023-02-04T10:00:56.783Z,9.50
2023-02-04T10:03:26.309Z,9.60
2023-02-04T10:05:53.220Z,9.60
2023-02-04T10:08:29.334Z,9.60
2023-02-04T10:10:58.066Z,9.60
2023-02-04T10:13:32.496Z,9.70
2023-02-04T10:16:00.003Z,9.70
2023-02-04T10:18:33.608Z,9.60
2023-02-04T10:21:19.190Z,9.70
2023-02-04T10:23:49.897Z,9.80
2023-02-04T10:26:19.479Z,9.90
2023-02-04T10:28:49.651Z,9.90
2023-02-04T10:31:38.794Z,10.00
2023-02-04T10:34:25.526Z,10.00
2023-02-04T10:36:55.724Z,10.00
2023-02-04T10:39:24.870Z,10.10
2023-02-04T10:41:53.213Z,10.10
2023-02-04T10:44:40.373Z,10.20
2023-02-04T10:47:16.443Z,10.10
2023-02-04T10:49:57.604Z,10.00
2023-02-04T10:52:32.998Z,10.00
2023-02-04T10:55:03.435Z,10.10
2023-02-04T10:57:33.390Z,10.00
2023-02-04T11:00:01.510Z,10.00
2023-02-04T11:02:55.067Z,9.90
2023-02-04T11:05:26.000Z,10.00
2023-02-04T11:07:57.622Z,10.10
2023-02-04T11:10:30.086Z,10.00
2023-02-04T11:12:56.784Z,10.00
2023-02-04T11:16:09.756Z,10.10
2023-02-04T11:18:58.133Z,10.20
2023-02-04T11:21:44.720Z,10.40
2023-02-04T11:24:11.377Z,10.40
2023-02-04T11:26:43.273Z,10.30
2023-02-04T11:29:23.372Z,10.30
2023-02-04T11:31:50.224Z,10.20
2023-02-04T11:34:18.404Z,10.20
2023-02-04T11:37:04.371Z,10.20
2023-02-04T11:39:47.359Z,10.20
2023-02-04T11:42:29.068Z,10.20
2023-02-04T11:45:12.636Z,10.20
2023-02-04T11:47:39.515Z,10.20
2023-02-04T11:50:15.322Z,10.30
2023-02-04T11:52:41.990Z,10.30
2023-02-04T11:55:14.100Z,10.30
2023-02-04T11:57:51.791Z,10.30
2023-02-04T12:00:23.659Z,10.30
2023-02-04T12:02:55.979Z,10.20
2023-02-04T12:05:30.540Z,10.20
2023-02-04T12:07:59.866Z,10.30
2023-02-04T12:10:27.119Z,10.30
2023-02-04T12:12:57.874Z,10.30
2023-02-04T12:15:24.542Z,10.40
2023-02-04T12:18:08.955Z,10.40
2023-02-04T12:20:37.298Z,10.40
2023-02-04T12:23:04.586Z,10.30
2023-02-04T12:25:31.754Z,10.30
2023-02-04T12:27:58.613Z,10.40
2023-02-04T12:30:26.523Z,10.50
2023-02-04T12:32:53.564Z,10.50
2023-02-04T12:35:22.387Z,10.50
2023-02-04T12:37:51.236Z,10.60
2023-02-04T12:40:20.191Z,10.60
2023-02-04T12:42:47.261Z,10.60
2023-02-04T12:45:16.283Z,10.60
2023-02-04T12:47:43.717Z,10.60
2023-02-04T12:50:24.925Z,10.60
2023-02-04T12:52:56.860Z,10.60
2023-02-04T12:55:25.370Z,10.70
2023-02-04T12:57:52.714Z,10.70
2023-02-04T13:00:20.985Z,10.70
2023-02-04T13:02:47.907Z,10.70
2023-02-04T13:05:15.531Z,10.70
2023-02-04T13:07:42.416Z,10.60
2023-02-04T13:10:10.769Z,10.70
2023-02-04T13:12:37.621Z,10.70
2023-02-04T13:15:04.640Z,10.70
2023-02-04T13:17:31.409Z,10.70
2023-02-04T13:19:58.281Z,10.60
2023-02-04T13:22:24.920Z,10.60
2023-02-04T13:24:51.694Z,10.70
2023-02-04T13:27:18.472Z,10.70
2023-02-04T13:29:45.178Z,10.90
2023-02-04T13:32:14.276Z,10.90
2023-02-04T13:34:41.039Z,11.00
2023-02-04T13:37:07.694Z,10.90
2023-02-04T13:39:34.375Z,10.90
2023-02-04T13:42:04.564Z,10.90
2023-02-04T13:44:31.298Z,10.90
2023-02-04T13:46:58.022Z,10.80
2023-02-04T13:49:24.826Z,10.80
2023-02-04T13:51:51.502Z,10.80
2023-02-04T13:54:18.283Z,10.80
2023-02-04T13:56:51.916Z,10.70
2023-02-04T13:59:20.727Z,10.70
2023-02-04T14:01:47.781Z,10.80
2023-02-04T14:04:14.555Z,10.80
2023-02-04T14:06:43.599Z,10.70
2023-02-04T14:09:12.176Z,10.80
2023-02-04T14:11:39.799Z,10.70
2023-02-04T14:14:07.130Z,10.60
2023-02-04T14:16:35.697Z,10.60
2023-02-04T14:19:03.704Z,10.70
2023-02-04T14:21:30.444Z,10.70
2023-02-04T14:23:57.144Z,10.70
2023-02-04T14:26:23.888Z,10.80
2023-02-04T14:28:50.561Z,10.80
2023-02-04T14:31:18.358Z,10.80
2023-02-04T14:33:45.178Z,11.00
2023-02-04T14:36:11.969Z,11.10
2023-02-04T14:38:39.213Z,11.30
2023-02-04T14:41:08.281Z,11.30
2023-02-04T14:43:37.321Z,11.20
2023-02-04T14:46:06.807Z,11.40
2023-02-04T14:48:34.286Z,11.30
2023-02-04T14:51:00.988Z,11.20
2023-02-04T14:53:27.752Z,11.20
2023-02-04T14:55:54.496Z,11.00
2023-02-04T14:58:21.379Z,10.90
2023-02-04T15:00:48.052Z,10.80
2023-02-04T15:03:14.702Z,10.70
2023-02-04T15:05:41.476Z,10.70
2023-02-04T15:08:08.191Z,10.60
2023-02-04T15:10:35.303Z,10.60
2023-02-04T15:13:02.363Z,10.50
2023-02-04T15:15:31.241Z,10.40
2023-02-04T15:17:57.981Z,10.40
2023-02-04T15:20:26.808Z,10.30
2023-02-04T15:22:56.196Z,10.20
2023-02-04T15:25:25.192Z,10.10
2023-02-04T15:27:54.381Z,10.20
2023-02-04T15:30:23.327Z,10.10
2023-02-04T15:32:50.065Z,10.20
2023-02-04T15:35:16.818Z,10.20
2023-02-04T15:37:43.511Z,10.20
2023-02-04T15:40:13.040Z,10.10
2023-02-04T15:42:39.879Z,10.10
2023-02-04T15:45:07.230Z,10.10
2023-02-04T15:47:33.967Z,10.00
2023-02-04T15:50:00.726Z,10.00
2023-02-04T15:52:29.199Z,10.00
2023-02-04T15:54:58.510Z,9.90
2023-02-04T15:57:25.223Z,9.80
2023-02-04T15:59:54.177Z,9.80
2023-02-04T16:02:20.939Z,9.70
2023-02-04T16:04:47.978Z,9.70
2023-02-04T16:07:17.212Z,9.60
2023-02-04T16:09:46.607Z,9.50
2023-02-04T16:12:13.294Z,9.50
2023-02-04T16:14:39.989Z,9.40
2023-02-04T16:17:08.204Z,9.40
2023-02-04T16:19:35.035Z,9.30
2023-02-04T16:22:01.912Z,9.30
2023-02-04T16:24:28.591Z,9.30
2023-02-04T16:27:00.317Z,9.20
2023-02-04T16:29:27.563Z,9.20
2023-02-04T16:31:57.633Z,9.10
2023-02-04T16:34:24.972Z,9.10
2023-02-04T16:36:51.716Z,9.10
2023-02-04T16:39:18.604Z,9.00
2023-02-04T16:41:45.300Z,9.10
2023-02-04T16:44:14.235Z,9.00
2023-02-04T16:46:40.998Z,9.00
2023-02-04T16:49:09.936Z,8.90
2023-02-04T16:51:36.664Z,8.90
2023-02-04T16:54:09.877Z,8.90
2023-02-04T16:56:39.221Z,8.90
2023-02-04T16:59:05.970Z,8.90
2023-02-04T17:01:35.087Z,8.90
2023-02-04T17:04:01.844Z,8.90
2023-02-04T17:06:32.516Z,8.90
2023-02-04T17:08:59.600Z,8.80
2023-02-04T17:11:29.416Z,8.80
2023-02-04T17:14:01.267Z,8.80
2023-02-04T17:16:29.107Z,8.80
2023-02-04T17:18:56.129Z,8.80
2023-02-04T17:21:24.235Z,8.80
2023-02-04T17:24:04.296Z,8.80
2023-02-04T17:26:37.355Z,8.80
2023-02-04T17:29:08.062Z,8.80
2023-02-04T17:31:34.949Z,8.70
2023-02-04T17:34:03.070Z,8.70
2023-02-04T17:36:30.362Z,8.80
2023-02-04T17:38:57.402Z,8.70
2023-02-04T17:41:26.577Z,8.80
2023-02-04T17:43:55.718Z,8.80
2023-02-04T17:46:23.354Z,8.70
2023-02-04T17:48:50.083Z,8.70
2023-02-04T17:51:19.418Z,8.70
2023-02-04T17:53:48.640Z,8.70
2023-02-04T17:56:15.432Z,8.70
2023-02-04T17:58:42.395Z,8.70
2023-02-04T18:01:15.350Z,8.70
2023-02-04T18:03:46.004Z,8.60
2023-02-04T18:06:25.109Z,8.60
2023-02-04T18:08:52.757Z,8.60
2023-02-04T18:11:27.426Z,8.60
2023-02-04T18:14:02.081Z,8.60
2023-02-04T18:16:30.928Z,8.50
2023-02-04T18:19:20.954Z,8.60
2023-02-04T18:21:48.414Z,8.60
2023-02-04T18:24:22.551Z,8.50
2023-02-04T18:26:51.666Z,8.50
2023-02-04T18:29:40.869Z,8.50
2023-02-04T18:32:22.909Z,8.50
2023-02-04T18:34:55.340Z,8.50
2023-02-04T18:37:46.693Z,8.50
2023-02-04T18:40:15.572Z,8.50
2023-02-04T18:42:44.413Z,8.60
2023-02-04T18:45:30.127Z,8.60
2023-02-04T18:48:19.562Z,8.70
2023-02-04T18:50:48.193Z,8.60
2023-02-04T18:53:15.161Z,8.60
2023-02-04T18:55:43.919Z,8.60
2023-02-04T18:58:17.165Z,8.60
2023-02-04T19:00:49.634Z,8.60
2023-02-04T19:03:29.539Z,8.70
2023-02-04T19:06:01.142Z,8.70
2023-02-04T19:08:43.896Z,8.80
2023-02-04T19:11:36.584Z,8.70
2023-02-04T19:14:21.782Z,8.70
2023-02-04T19:16:53.047Z,8.60
2023-02-04T19:19:37.039Z,8.60
2023-02-04T19:22:30.723Z,8.50
2023-02-04T19:25:17.798Z,8.50
2023-02-04T19:27:52.243Z,8.50
2023-02-04T19:30:28.246Z,8.50
2023-02-04T19:32:57.474Z,8.50
2023-02-04T19:35:27.056Z,8.40
2023-02-04T19:38:02.456Z,8.40
2023-02-04T19:40:38.637Z,8.40
2023-02-04T19:43:08.354Z,8.40
2023-02-04T19:45:37.496Z,8.50
2023-02-04T19:48:21.619Z,8.50
2023-02-04T19:50:52.564Z,8.50
2023-02-04T19:53:22.296Z,8.50
2023-02-04T19:55:51.733Z,8.50
2023-02-04T19:58:27.175Z,8.50
2023-02-04T20:00:56.838Z,8.50
2023-02-04T20:03:43.033Z,8.40
2023-02-04T20:06:09.655Z,8.50
2023-02-04T20:08:55.005Z,8.40
2023-02-04T20:11:34.936Z,8.50
2023-02-04T20:14:13.924Z,8.50
2023-02-04T20:16:46.452Z,8.40
2023-02-04T20:19:37.814Z,8.40
2023-02-04T20:22:23.439Z,8.40
2023-02-04T20:25:26.648Z,8.40
2023-02-04T20:28:00.965Z,8.50
2023-02-04T20:30:29.970Z,8.40
2023-02-04T20:33:01.864Z,8.40
2023-02-04T20:35:32.286Z,8.40
2023-02-04T20:38:07.369Z,8.50
2023-02-04T20:40:35.967Z,8.50
2023-02-04T20:43:16.848Z,8.50
2023-02-04T20:46:07.228Z,8.50
2023-02-04T20:48:37.772Z,8.50
2023-02-04T20:51:16.811Z,8.50
2023-02-04T20:53:58.289Z,8.50
2023-02-04T20:56:37.561Z,8.50
2023-02-04T20:59:21.431Z,8.40
2023-02-04T21:01:50.110Z,8.40
2023-02-04T21:04:19.694Z,8.40
2023-02-04T21:06:46.696Z,8.40
2023-02-04T21:09:26.016Z,8.40
2023-02-04T21:11:54.184Z,8.40
2023-02-04T21:14:21.844Z,8.40
2023-02-04T21:16:48.641Z,8.40
2023-02-04T21:19:18.121Z,8.40
2023-02-04T21:21:44.971Z,8.40
2023-02-04T21:24:12.164Z,8.40
2023-02-04T21:26:39.560Z,8.40
2023-02-04T21:29:06.708Z,8.40
2023-02-04T21:31:34.514Z,8.40
2023-02-04T21:34:01.252Z,8.40
2023-02-04T21:36:28.220Z,8.40
2023-02-04T21:38:56.010Z,8.40
2023-02-04T21:41:23.948Z,8.40
2023-02-04T21:43:51.492Z,8.40
2023-02-04T21:46:19.125Z,8.50
2023-02-04T21:48:48.220Z,8.40
2023-02-04T21:51:15.645Z,8.40
2023-02-04T21:53:44.840Z,8.40
2023-02-04T21:56:11.680Z,8.40
2023-02-04T21:58:38.795Z,8.50
2023-02-04T22:01:05.838Z,8.50
2023-02-04T22:03:32.700Z,8.50
2023-02-04T22:06:01.648Z,8.50
2023-02-04T22:08:28.354Z,8.40
2023-02-04T22:10:55.142Z,8.40
2023-02-04T22:13:24.223Z,8.40
2023-02-04T22:15:50.990Z,8.40
2023-02-04T22:18:17.803Z,8.40
2023-02-04T22:20:44.573Z,8.30
2023-02-04T22:23:11.283Z,8.30
2023-02-04T22:25:38.040Z,8.30
2023-02-04T22:28:04.855Z,8.30
2023-02-04T22:30:31.580Z,8.30
2023-02-04T22:33:00.130Z,8.30
2023-02-04T22:35:29.844Z,8.30
2023-02-04T22:37:59.408Z,8.30
2023-02-04T22:40:27.779Z,8.30
2023-02-04T22:42:56.907Z,8.30
2023-02-04T22:45:23.640Z,8.30
2023-02-04T22:47:50.520Z,8.40
2023-02-04T22:50:17.298Z,8.40
2023-02-04T22:52:46.176Z,8.30
2023-02-04T22:55:15.331Z,8.30
2023-02-04T22:57:44.426Z,8.30
2023-02-04T23:00:14.057Z,8.30
2023-02-04T23:02:40.742Z,8.30
2023-02-04T23:05:09.673Z,8.30
2023-02-04T23:07:39.216Z,8.20
2023-02-04T23:10:06.327Z,8.20
2023-02-04T23:12:33.005Z,8.10
2023-02-04T23:14:59.638Z,8.10
2023-02-04T23:17:26.384Z,8.10
2023-02-04T23:19:53.115Z,8.10
2023-02-04T23:22:19.794Z,8.10
2023-02-04T23:24:46.792Z,8.10
2023-02-04T23:27:13.680Z,8.10
2023-02-04T23:29:40.718Z,8.10
2023-02-04T23:32:12.141Z,8.10
2023-02-04T23:34:38.828Z,8.20
2023-02-04T23:37:05.773Z,8.30
2023-02-04T23:39:35.101Z,8.20
2023-02-04T23:42:01.942Z,8.30
2023-02-04T23:44:28.706Z,8.30
2023-02-04T23:46:57.691Z,8.30
2023-02-04T23:49:26.570Z,8.30
2023-02-04T23:51:53.228Z,8.30
2023-02-04T23:54:23.613Z,8.30
2023-02-04T23:56:52.678Z,8.30
2023-02-04T23:59:21.785Z,8.30
